Time;durP1;ratioP1;P1;durP2;ratioP2;P2;SDS_P1;SDS_P2;PMS_P1;PMS_P2;Temp;Humidity;BMP_temperature;BMP_pressure;BME280_temperature;BME280_humidity;BME280_pressure;Samples;Min_cycle;Max_cycle;Signal;HPM_P1;HPM_P2
2024/03/01 00:08:06;;;;;;;13.35;8.55;;;8.80;99.90;;;;;;4721940;30;20047;-84
2024/03/01 01:13:18;;;;;;;18.55;10.20;;;8.80;99.90;;;;;;5111679;22;24715449;-85
2024/03/01 01:16:09;;;;;;;16.02;10.18;;;8.80;99.90;;;;;;6155981;23;20582;-85
2024/03/01 01:18:35;;;;;;;18.52;9.43;;;8.70;99.90;;;;;;6180140;22;20822;-85
2024/03/01 01:27:47;;;;;;;12.57;7.28;;;8.70;99.90;;;;;;6241267;22;20035;-85
2024/03/01 01:31:12;;;;;;;14.77;8.77;;;8.70;99.90;;;;;;6183551;23;20004;-85
2024/03/01 01:33:50;;;;;;;16.90;9.50;;;8.60;99.90;;;;;;6087482;23;20029;-85
2024/03/01 02:08:51;;;;;;;12.63;8.25;;;8.10;99.90;;;;;;6108533;23;20066;-84
2024/03/01 02:18:47;;;;;;;16.88;7.70;;;8.00;99.90;;;;;;6172888;23;20017;-85
2024/03/01 02:25:12;;;;;;;17.33;10.43;;;8.00;99.90;;;;;;6039467;23;20623;-84
2024/03/01 02:27:47;;;;;;;14.88;8.60;;;7.90;99.90;;;;;;6027962;23;20361;-84
2024/03/01 02:53:35;;;;;;;14.77;8.35;;;7.80;99.90;;;;;;6220917;22;20028;-90
2024/03/01 02:56:01;;;;;;;14.90;8.48;;;7.80;99.90;;;;;;6179496;23;20016;-90
2024/03/01 02:58:26;;;;;;;11.68;7.75;;;7.90;99.90;;;;;;6159668;23;20008;-90
2024/03/01 03:00:52;;;;;;;14.75;6.68;;;7.90;99.90;;;;;;6157072;23;20032;-90
2024/03/01 03:03:18;;;;;;;16.75;8.07;;;7.80;99.90;;;;;;6156801;23;20041;-89
2024/03/01 03:05:44;;;;;;;18.50;8.98;;;7.90;99.90;;;;;;6157310;23;20013;-90
2024/03/01 03:08:09;;;;;;;14.23;9.13;;;7.80;99.90;;;;;;6156876;23;20561;-89
2024/03/01 03:10:35;;;;;;;15.10;8.20;;;7.80;99.90;;;;;;6156927;23;20016;-90
2024/03/01 03:13:02;;;;;;;14.48;8.18;;;7.70;99.90;;;;;;6154826;23;20013;-89
2024/03/01 03:15:28;;;;;;;13.35;7.68;;;7.70;99.90;;;;;;6154179;23;20070;-90
2024/03/01 03:17:54;;;;;;;14.63;8.32;;;7.60;99.90;;;;;;6154006;23;20016;-89
2024/03/01 03:20:21;;;;;;;17.35;9.70;;;7.60;99.90;;;;;;6152426;23;20419;-90
2024/03/01 03:22:47;;;;;;;14.35;8.38;;;7.60;99.90;;;;;;6154960;23;20465;-90
2024/03/01 03:25:13;;;;;;;20.42;9.30;;;7.60;99.90;;;;;;6151836;23;20033;-90
2024/03/01 03:27:42;;;;;;;15.10;8.65;;;7.60;99.90;;;;;;6156436;23;20272;-91
2024/03/01 03:30:08;;;;;;;11.45;6.18;;;7.60;99.90;;;;;;6155594;23;20059;-89
2024/03/01 03:32:34;;;;;;;16.55;9.55;;;7.60;99.90;;;;;;6155665;23;20032;-90
2024/03/01 03:35:00;;;;;;;14.15;8.57;;;7.60;99.90;;;;;;6154386;23;20008;-90
2024/03/01 03:37:25;;;;;;;16.33;8.18;;;7.70;99.90;;;;;;6178654;23;20070;-89
2024/03/01 03:39:52;;;;;;;17.90;9.88;;;7.60;99.90;;;;;;6140867;23;20009;-89
2024/03/01 03:42:18;;;;;;;15.23;8.93;;;7.60;99.90;;;;;;6153546;23;20455;-90
2024/03/01 03:44:43;;;;;;;14.10;8.20;;;7.50;99.90;;;;;;6152775;23;20017;-90
2024/03/01 03:47:09;;;;;;;16.85;10.05;;;7.60;99.90;;;;;;6153208;23;20012;-90
2024/03/01 03:49:36;;;;;;;16.58;8.85;;;7.50;99.90;;;;;;6155468;23;20028;-90
2024/03/01 03:52:01;;;;;;;14.43;7.07;;;7.50;99.90;;;;;;6168726;23;20016;-92
2024/03/01 03:54:27;;;;;;;12.32;6.15;;;7.50;99.90;;;;;;6182693;23;20328;-90
2024/03/01 03:56:53;;;;;;;15.32;7.60;;;7.60;99.90;;;;;;6167385;23;20009;-90
2024/03/01 03:59:22;;;;;;;18.48;7.90;;;7.60;99.90;;;;;;6181349;23;20001;-90
2024/03/01 04:01:49;;;;;;;15.93;8.45;;;7.50;99.90;;;;;;6180206;23;20031;-89
2024/03/01 04:04:17;;;;;;;14.20;7.90;;;7.50;99.90;;;;;;6180861;23;20015;-90
2024/03/01 04:06:42;;;;;;;14.18;8.38;;;7.50;99.90;;;;;;6178423;23;20013;-90
2024/03/01 04:09:11;;;;;;;13.63;7.78;;;7.50;99.90;;;;;;6179309;23;20018;-90
2024/03/01 04:11:37;;;;;;;13.77;7.70;;;7.50;99.90;;;;;;6179026;23;20023;-90
2024/03/01 04:14:03;;;;;;;15.90;9.25;;;7.50;99.90;;;;;;6180671;23;20001;-92
2024/03/01 04:16:29;;;;;;;17.25;9.35;;;7.60;99.90;;;;;;6164674;23;20027;-90
2024/03/01 04:18:56;;;;;;;15.75;9.48;;;7.50;99.90;;;;;;6178792;23;20429;-89
2024/03/01 04:21:21;;;;;;;14.18;8.90;;;7.60;99.90;;;;;;6179773;23;20320;-90
2024/03/01 04:23:48;;;;;;;16.17;8.63;;;7.50;99.90;;;;;;6179078;23;20001;-89
2024/03/01 04:26:13;;;;;;;15.45;8.75;;;7.50;99.90;;;;;;6179237;23;20005;-89
2024/03/01 04:28:39;;;;;;;14.38;8.25;;;7.50;99.90;;;;;;6204641;23;20492;-90
2024/03/01 04:31:05;;;;;;;13.18;6.82;;;7.40;99.90;;;;;;6165783;23;20721;-89
2024/03/01 04:33:34;;;;;;;14.55;7.20;;;7.50;99.90;;;;;;6177794;23;20096;-89
2024/03/01 04:35:59;;;;;;;14.07;8.93;;;7.50;99.90;;;;;;6179094;23;20020;-89
2024/03/01 04:38:30;;;;;;;12.40;7.22;;;7.50;99.90;;;;;;6179185;23;20704;-89
2024/03/01 04:40:56;;;;;;;14.40;8.02;;;7.50;99.90;;;;;;6178303;23;20017;-90
2024/03/01 04:43:22;;;;;;;11.00;6.45;;;7.50;99.90;;;;;;6178446;23;20044;-90
2024/03/01 04:45:47;;;;;;;17.17;8.02;;;7.50;99.90;;;;;;6180823;23;20431;-90
2024/03/01 04:48:13;;;;;;;12.57;7.78;;;7.50;99.90;;;;;;6178277;23;20016;-90
2024/03/01 04:50:39;;;;;;;14.13;6.88;;;7.60;99.90;;;;;;6178825;23;20375;-89
2024/03/01 04:53:04;;;;;;;15.20;9.07;;;7.60;99.90;;;;;;6166964;23;20485;-90
2024/03/01 04:55:30;;;;;;;10.93;6.63;;;7.70;99.90;;;;;;6173991;23;20012;-89
2024/03/01 04:57:56;;;;;;;12.55;7.63;;;7.60;99.90;;;;;;6174340;23;20020;-90
2024/03/01 05:00:23;;;;;;;14.20;8.07;;;7.60;99.90;;;;;;6176990;23;20063;-91
2024/03/01 05:02:49;;;;;;;14.82;8.90;;;7.70;99.90;;;;;;6175557;23;20096;-90
2024/03/01 05:05:16;;;;;;;15.57;8.40;;;7.60;99.90;;;;;;6175966;23;20013;-90
2024/03/01 05:07:41;;;;;;;16.63;7.97;;;7.60;99.90;;;;;;6175765;23;20177;-90
2024/03/01 05:10:10;;;;;;;16.60;8.32;;;7.60;99.90;;;;;;6176960;23;20092;-91
2024/03/01 05:12:37;;;;;;;11.18;5.97;;;7.60;99.90;;;;;;6175752;23;20139;-89
2024/03/01 05:15:07;;;;;;;14.07;8.23;;;7.70;99.90;;;;;;6124055;23;20009;-91
2024/03/01 05:17:34;;;;;;;11.90;7.50;;;7.70;99.90;;;;;;6175501;23;20466;-89
2024/03/01 05:19:59;;;;;;;14.25;8.20;;;7.70;99.90;;;;;;6175454;23;20013;-90
2024/03/01 05:22:25;;;;;;;9.68;5.82;;;7.80;99.90;;;;;;6176353;23;20067;-90
2024/03/01 05:24:51;;;;;;;14.80;7.97;;;7.80;99.90;;;;;;6175131;23;20447;-90
2024/03/01 05:27:19;;;;;;;13.85;7.95;;;7.80;99.90;;;;;;6174929;23;20016;-89
2024/03/01 05:29:44;;;;;;;13.73;7.25;;;7.90;99.90;;;;;;6176424;23;20005;-90
2024/03/01 05:32:10;;;;;;;12.70;7.82;;;7.80;99.90;;;;;;6172745;23;20017;-91
2024/03/01 05:34:35;;;;;;;14.45;7.70;;;7.80;99.90;;;;;;6176250;23;20166;-89
2024/03/01 05:37:03;;;;;;;14.05;6.78;;;7.90;99.90;;;;;;6174139;23;20020;-90
2024/03/01 05:39:29;;;;;;;11.30;6.65;;;7.90;99.90;;;;;;6176843;23;20028;-90
2024/03/01 05:41:58;;;;;;;14.32;8.07;;;7.90;99.90;;;;;;6173277;23;20072;-92
2024/03/01 05:44:25;;;;;;;12.88;7.00;;;7.80;99.90;;;;;;6175003;23;20597;-90
2024/03/01 05:46:53;;;;;;;12.45;7.82;;;8.00;99.90;;;;;;6174971;23;20390;-91
2024/03/01 05:49:21;;;;;;;12.32;7.57;;;7.90;99.90;;;;;;6175015;23;20005;-91
2024/03/01 05:51:46;;;;;;;13.25;7.05;;;8.00;99.90;;;;;;6169000;23;20013;-90
2024/03/01 05:54:14;;;;;;;11.23;7.03;;;8.10;99.90;;;;;;6125624;23;20568;-91
2024/03/01 05:56:40;;;;;;;10.60;5.72;;;8.10;99.90;;;;;;6175158;23;20355;-89
2024/03/01 05:59:06;;;;;;;12.77;5.55;;;8.10;99.90;;;;;;6176547;23;19997;-90
2024/03/01 06:01:32;;;;;;;12.98;7.10;;;8.10;99.90;;;;;;6174887;23;20017;-89
2024/03/01 06:03:58;;;;;;;11.55;6.80;;;8.20;99.90;;;;;;6177875;23;20087;-90
2024/03/01 06:06:23;;;;;;;13.95;6.45;;;8.20;99.90;;;;;;6151547;23;20036;-90
2024/03/01 06:08:49;;;;;;;12.00;7.22;;;8.20;99.90;;;;;;6175321;23;20734;-90
2024/03/01 06:11:15;;;;;;;14.00;8.38;;;8.30;99.90;;;;;;6176244;23;20076;-90
2024/03/01 06:13:40;;;;;;;11.65;6.15;;;8.20;99.90;;;;;;6176041;23;20032;-89
2024/03/01 06:16:06;;;;;;;7.55;4.57;;;8.20;99.90;;;;;;6177958;23;20027;-90
2024/03/01 06:18:32;;;;;;;10.60;6.88;;;8.30;99.90;;;;;;6175217;23;20436;-90
2024/03/01 06:20:58;;;;;;;13.50;7.40;;;8.40;99.90;;;;;;6175530;23;20028;-90
2024/03/01 06:23:23;;;;;;;10.15;6.95;;;8.30;99.90;;;;;;6174738;23;20039;-89
2024/03/01 06:25:49;;;;;;;12.95;7.10;;;8.30;99.90;;;;;;6174755;23;20013;-89
2024/03/01 06:28:15;;;;;;;10.00;6.65;;;8.20;99.90;;;;;;6174651;23;20200;-90
2024/03/01 06:30:41;;;;;;;13.93;6.22;;;8.30;99.90;;;;;;6163559;23;20020;-90
2024/03/01 06:33:06;;;;;;;11.45;6.13;;;8.30;99.90;;;;;;6178120;23;20039;-89
2024/03/01 06:35:32;;;;;;;7.18;3.70;;;8.40;99.90;;;;;;6176976;23;20008;-92
2024/03/01 06:37:58;;;;;;;6.35;3.58;;;8.40;99.90;;;;;;6176677;23;20012;-90
2024/03/01 06:40:23;;;;;;;4.18;2.67;;;8.50;99.90;;;;;;6176296;23;20502;-89
2024/03/01 06:42:49;;;;;;;9.30;4.13;;;8.50;99.90;;;;;;6174983;23;20035;-88
2024/03/01 06:45:15;;;;;;;9.93;6.45;;;8.50;99.90;;;;;;6175246;23;20023;-89
2024/03/01 06:47:41;;;;;;;11.88;6.22;;;8.50;99.90;;;;;;6174983;23;20013;-89
2024/03/01 06:50:08;;;;;;;6.10;3.20;;;8.60;99.90;;;;;;6174781;23;20628;-89
2024/03/01 06:52:35;;;;;;;13.32;4.97;;;8.60;99.90;;;;;;6136341;23;20021;-90
2024/03/01 06:55:00;;;;;;;13.20;6.35;;;8.60;99.90;;;;;;6148817;23;20041;-88
2024/03/01 06:57:26;;;;;;;10.63;6.35;;;8.60;99.90;;;;;;6170092;23;20492;-89
2024/03/01 06:59:52;;;;;;;9.30;4.95;;;8.60;99.90;;;;;;6174300;23;20344;-89
2024/03/01 07:02:17;;;;;;;11.50;6.57;;;8.60;99.90;;;;;;6174779;23;20019;-90
2024/03/01 07:04:43;;;;;;;6.32;4.47;;;8.60;99.90;;;;;;6176798;23;20021;-89
2024/03/01 07:07:08;;;;;;;10.18;6.40;;;8.60;99.90;;;;;;6177864;23;20015;-89
2024/03/01 07:09:34;;;;;;;7.25;4.20;;;8.50;99.90;;;;;;6175854;23;20020;-89
2024/03/01 07:12:00;;;;;;;13.20;7.60;;;8.60;99.90;;;;;;6175328;23;20075;-89
2024/03/01 07:14:26;;;;;;;16.05;8.70;;;8.50;99.90;;;;;;6174300;23;20060;-88
2024/03/01 07:17:19;;;;;;;11.93;7.15;;;8.60;99.90;;;;;;6161737;23;20020;-89
2024/03/01 07:19:51;;;;;;;8.43;4.43;;;8.50;99.90;;;;;;6162267;23;20084;-88
2024/03/01 07:22:17;;;;;;;8.88;4.55;;;8.30;99.90;;;;;;6174822;23;20040;-88
2024/03/01 07:24:42;;;;;;;3.80;2.40;;;8.30;99.90;;;;;;6174425;23;20517;-88
2024/03/01 07:27:08;;;;;;;8.18;4.93;;;8.30;99.90;;;;;;6175956;23;20544;-88
2024/03/01 07:29:33;;;;;;;7.82;4.15;;;8.20;99.90;;;;;;6172642;23;20013;-88
2024/03/01 07:31:59;;;;;;;8.40;4.57;;;8.10;99.90;;;;;;6172985;23;20031;-88
2024/03/01 07:34:25;;;;;;;6.35;3.85;;;8.20;99.90;;;;;;6175098;23;20021;-90
2024/03/01 07:36:50;;;;;;;5.75;3.97;;;8.20;99.90;;;;;;6175263;23;20013;-88
2024/03/01 07:39:16;;;;;;;8.60;4.07;;;8.20;99.90;;;;;;6173881;23;20063;-89
2024/03/01 07:41:41;;;;;;;6.82;3.95;;;8.10;99.90;;;;;;6172247;23;20320;-89
2024/03/01 07:44:08;;;;;;;5.30;3.05;;;8.10;99.90;;;;;;6176305;23;19997;-90
2024/03/01 07:46:34;;;;;;;4.15;3.00;;;8.10;99.90;;;;;;6174583;23;20376;-89
2024/03/01 07:49:00;;;;;;;6.30;2.75;;;8.00;99.90;;;;;;6173886;23;20020;-89
2024/03/01 07:51:25;;;;;;;5.47;2.45;;;7.90;99.90;;;;;;6174126;23;20017;-90
2024/03/01 07:53:51;;;;;;;6.72;3.13;;;8.00;99.90;;;;;;6171831;23;20063;-88
2024/03/01 07:56:26;;;;;;;7.63;3.72;;;7.90;99.90;;;;;;6162762;23;20079;-89
2024/03/01 07:59:01;;;;;;;7.30;3.33;;;7.90;99.90;;;;;;6123905;23;20320;-90
2024/03/01 08:01:26;;;;;;;5.97;3.42;;;7.90;99.90;;;;;;6173881;23;20453;-88
2024/03/01 08:03:54;;;;;;;4.40;2.40;;;7.90;99.90;;;;;;6173527;23;20040;-88
2024/03/01 08:06:27;;;;;;;4.03;1.85;;;7.90;99.90;;;;;;6174627;23;20508;-88
2024/03/01 08:08:52;;;;;;;3.70;2.38;;;7.80;99.90;;;;;;6172599;23;20009;-88
2024/03/01 08:11:27;;;;;;;4.68;3.30;;;7.90;99.90;;;;;;6174498;23;20012;-88
2024/03/01 08:13:52;;;;;;;5.63;3.63;;;7.90;99.90;;;;;;6173245;23;20013;-87
2024/03/01 08:16:19;;;;;;;5.20;2.58;;;7.90;99.90;;;;;;6176589;23;20036;-87
2024/03/01 08:18:45;;;;;;;3.40;2.30;;;7.90;99.90;;;;;;6176605;23;20001;-87
2024/03/01 08:21:14;;;;;;;5.45;2.85;;;7.80;99.90;;;;;;6178898;23;20040;-87
2024/03/01 08:23:41;;;;;;;5.50;3.92;;;7.90;99.90;;;;;;6131890;23;20031;-87
2024/03/01 08:26:30;;;;;;;4.97;3.00;;;7.90;99.90;;;;;;6145957;23;20073;-88
2024/03/01 08:29:00;;;;;;;2.30;1.60;;;7.80;99.90;;;;;;6181167;23;20427;-89
2024/03/01 08:31:29;;;;;;;4.38;2.83;;;7.80;99.90;;;;;;6181003;23;20135;-89
2024/03/01 08:34:17;;;;;;;5.30;3.83;;;7.90;99.90;;;;;;6182456;23;20320;-90
2024/03/01 08:36:43;;;;;;;4.57;2.25;;;7.90;99.90;;;;;;6131956;23;20009;-88
2024/03/01 08:39:35;;;;;;;3.70;2.90;;;7.80;99.90;;;;;;6133185;23;20012;-89
2024/03/01 08:42:01;;;;;;;6.30;2.85;;;7.90;99.90;;;;;;6127400;23;20032;-89
2024/03/01 08:44:50;;;;;;;5.85;3.28;;;7.90;99.90;;;;;;6130926;23;20005;-91
2024/03/01 08:47:25;;;;;;;2.58;1.58;;;7.90;99.90;;;;;;6210414;23;20016;-91
2024/03/01 08:49:54;;;;;;;3.38;2.45;;;7.90;99.90;;;;;;6214706;23;20100;-89
2024/03/01 08:52:32;;;;;;;3.08;2.33;;;7.90;99.90;;;;;;6203574;23;20020;-89
2024/03/01 08:55:16;;;;;;;5.63;3.13;;;7.90;99.90;;;;;;6219814;23;20016;-89
2024/03/01 08:57:42;;;;;;;4.60;2.67;;;7.90;99.90;;;;;;6218626;23;20119;-90
2024/03/01 09:00:40;;;;;;;1.60;1.33;;;8.00;99.90;;;;;;6194155;23;20016;-89
2024/03/01 09:03:09;;;;;;;3.58;2.17;;;8.10;99.90;;;;;;6194289;23;20028;-89
2024/03/01 09:05:36;;;;;;;2.40;1.75;;;7.90;99.90;;;;;;6195970;23;20087;-88
2024/03/01 09:08:03;;;;;;;4.60;2.65;;;8.00;99.90;;;;;;6194490;23;20016;-89
2024/03/01 09:10:32;;;;;;;7.40;2.60;;;8.00;99.90;;;;;;6194469;23;20486;-89
2024/03/01 09:13:06;;;;;;;4.70;3.60;;;8.10;99.90;;;;;;6219523;23;20020;-90
2024/03/01 09:15:37;;;;;;;3.33;2.00;;;8.10;99.90;;;;;;6195188;23;20008;-89
2024/03/01 09:18:07;;;;;;;4.93;2.13;;;8.10;99.90;;;;;;6192449;23;20047;-89
2024/03/01 09:20:34;;;;;;;3.10;2.42;;;8.10;99.90;;;;;;6219612;23;20354;-89
2024/03/01 09:23:00;;;;;;;3.35;2.40;;;8.20;99.90;;;;;;6220316;23;20032;-90
2024/03/01 09:25:41;;;;;;;4.35;3.08;;;8.20;99.90;;;;;;6193127;23;20485;-89
2024/03/01 09:28:10;;;;;;;2.75;2.47;;;8.30;99.90;;;;;;6243493;23;20096;-89
2024/03/01 09:30:35;;;;;;;3.88;2.40;;;8.40;99.90;;;;;;6195796;23;20016;-91
2024/03/01 09:33:02;;;;;;;2.60;2.20;;;8.60;99.90;;;;;;6220116;23;20023;-89
2024/03/01 09:35:28;;;;;;;3.03;2.10;;;8.70;99.90;;;;;;6193999;22;20000;-88
2024/03/01 09:37:54;;;;;;;2.90;1.95;;;8.60;99.90;;;;;;6193327;23;20018;-89
2024/03/01 09:40:37;;;;;;;2.65;2.22;;;8.90;99.90;;;;;;6190399;23;20012;-88
2024/03/01 09:43:15;;;;;;;3.03;2.25;;;8.80;99.90;;;;;;6243641;23;20047;-87
2024/03/01 09:45:46;;;;;;;2.15;1.67;;;8.90;99.90;;;;;;6193285;23;20016;-89
2024/03/01 09:48:50;;;;;;;2.45;1.77;;;9.00;99.90;;;;;;6217392;23;20019;-89
2024/03/01 09:51:23;;;;;;;2.70;1.98;;;9.30;99.90;;;;;;6228109;22;20008;-90
2024/03/01 09:53:54;;;;;;;2.90;1.77;;;9.50;99.90;;;;;;6216006;23;20020;-90
2024/03/01 09:56:29;;;;;;;1.73;1.17;;;9.90;99.90;;;;;;6240898;23;20008;-89
2024/03/01 09:59:19;;;;;;;2.58;1.40;;;10.00;99.90;;;;;;6240495;23;20449;-89
2024/03/01 10:01:46;;;;;;;1.75;1.27;;;9.90;99.90;;;;;;6190347;23;20019;-89
2024/03/01 10:04:26;;;;;;;3.03;1.63;;;10.20;99.90;;;;;;6191823;23;20134;-90
2024/03/01 10:06:56;;;;;;;3.17;2.10;;;10.30;99.90;;;;;;6238895;23;20008;-90
2024/03/01 10:09:47;;;;;;;3.60;1.55;;;10.30;99.90;;;;;;6214676;23;20016;-88
2024/03/01 10:12:34;;;;;;;2.85;1.60;;;10.50;99.90;;;;;;6212891;23;20039;-88
2024/03/01 10:15:04;;;;;;;1.10;0.82;;;10.50;99.90;;;;;;6189602;23;20007;-87
2024/03/01 10:18:22;;;;;;;0.75;0.75;;;10.40;99.90;;;;;;6188690;23;20039;-91
2024/03/01 10:21:00;;;;;;;1.63;1.08;;;10.30;99.90;;;;;;6123630;23;20033;-88
2024/03/01 10:23:48;;;;;;;1.55;1.25;;;10.40;99.90;;;;;;6189370;23;20016;-88
2024/03/01 10:26:27;;;;;;;1.05;0.65;;;10.60;99.90;;;;;;6214126;23;20327;-90
2024/03/01 10:29:22;;;;;;;1.08;0.70;;;10.80;99.90;;;;;;6188251;23;20484;-88
2024/03/01 10:32:10;;;;;;;2.47;1.85;;;10.70;99.90;;;;;;6187298;23;20016;-88
2024/03/01 10:34:56;;;;;;;1.05;0.80;;;10.50;99.90;;;;;;6188240;23;20494;-88
2024/03/01 10:37:43;;;;;;;1.95;1.50;;;10.80;99.90;;;;;;6214316;23;20008;-88
2024/03/01 10:40:11;;;;;;;0.93;0.77;;;10.80;99.90;;;;;;6213565;23;21066;-89
2024/03/01 10:42:43;;;;;;;2.88;1.77;;;10.60;99.90;;;;;;6235885;22;20397;-88
2024/03/01 10:45:12;;;;;;;2.13;1.70;;;10.90;99.90;;;;;;6212614;23;20103;-88
2024/03/01 10:47:38;;;;;;;1.98;1.35;;;10.90;99.90;;;;;;6170697;23;20620;-89
2024/03/01 10:50:12;;;;;;;2.20;1.70;;;10.90;99.90;;;;;;6187412;23;20008;-88
2024/03/01 10:52:47;;;;;;;4.57;1.75;;;10.90;99.90;;;;;;6210519;23;20020;-88
2024/03/01 10:55:23;;;;;;;8.63;2.40;;;11.20;99.90;;;;;;6189195;23;20012;-87
2024/03/01 10:57:55;;;;;;;1.58;1.13;;;11.20;99.90;;;;;;6211957;23;20307;-87
2024/03/01 11:00:23;;;;;;;2.20;1.50;;;11.10;99.90;;;;;;6213254;23;20091;-88
2024/03/01 11:03:13;;;;;;;4.13;1.40;;;11.10;99.90;;;;;;6213129;23;20095;-89
2024/03/01 11:06:14;;;;;;;2.63;1.15;;;11.30;99.90;;;;;;6213897;23;20011;-88
2024/03/01 11:09:03;;;;;;;3.50;1.58;;;11.40;99.90;;;;;;6183997;23;20031;-88
2024/03/01 11:12:10;;;;;;;2.65;1.80;;;11.30;99.90;;;;;;6213868;23;20040;-88
2024/03/01 11:14:38;;;;;;;1.48;1.10;;;11.40;99.90;;;;;;6206861;23;20010;-88
2024/03/01 11:17:03;;;;;;;1.92;1.38;;;11.70;99.90;;;;;;6187814;23;20470;-88
2024/03/01 11:19:30;;;;;;;2.55;1.17;;;11.80;99.90;;;;;;6187963;23;20012;-89
2024/03/01 11:22:07;;;;;;;1.42;1.17;;;11.70;99.90;;;;;;6187311;23;20008;-89
2024/03/01 11:24:34;;;;;;;3.42;1.00;;;11.70;99.90;;;;;;6187344;23;20024;-89
2024/03/01 11:27:02;;;;;;;2.08;1.27;;;11.80;99.90;;;;;;6185980;23;20012;-90
2024/03/01 11:29:42;;;;;;;2.08;1.20;;;11.90;99.90;;;;;;6187269;23;20019;-88
2024/03/01 11:32:20;;;;;;;1.77;1.20;;;11.80;99.90;;;;;;6187614;23;20027;-88
2024/03/01 11:35:12;;;;;;;1.17;1.02;;;12.00;99.90;;;;;;6186925;23;20018;-89
2024/03/01 11:37:50;;;;;;;0.55;0.55;;;12.00;99.90;;;;;;6197889;23;20012;-89
2024/03/01 11:40:47;;;;;;;1.27;0.52;;;11.90;99.90;;;;;;6213022;23;20011;-89
2024/03/01 11:43:37;;;;;;;0.93;0.70;;;11.90;99.90;;;;;;6209851;23;20012;-89
2024/03/01 11:49:35;;;;;;;2.35;1.13;;;12.30;99.90;;;;;;6192352;22;20046;-89
2024/03/01 11:52:19;;;;;;;4.57;0.90;;;12.20;99.90;;;;;;6205476;23;20019;-89
2024/03/01 11:55:10;;;;;;;1.73;0.80;;;12.40;99.90;;;;;;6237006;22;20020;-89
2024/03/01 11:58:13;;;;;;;0.60;0.50;;;12.50;99.90;;;;;;6211721;23;20027;-89
2024/03/01 12:01:13;;;;;;;0.70;0.70;;;12.50;99.90;;;;;;6236116;23;20004;-89
2024/03/01 12:04:01;;;;;;;0.73;0.47;;;12.70;99.90;;;;;;6211263;23;20016;-89
2024/03/01 12:06:58;;;;;;;0.40;0.40;;;12.90;99.90;;;;;;6211449;23;20078;-89
2024/03/01 12:09:50;;;;;;;0.60;0.60;;;13.00;99.90;;;;;;6212792;23;20029;-88
2024/03/01 12:12:32;;;;;;;0.75;0.45;;;13.30;99.90;;;;;;6210807;23;20019;-88
2024/03/01 12:14:58;;;;;;;0.32;0.30;;;13.50;99.90;;;;;;6226383;22;20015;-90
2024/03/01 12:17:47;;;;;;;0.75;0.40;;;13.60;99.90;;;;;;6186596;23;20024;-90
2024/03/01 12:20:16;;;;;;;0.52;0.38;;;13.50;99.90;;;;;;6187211;23;20008;-89
2024/03/01 12:23:11;;;;;;;0.95;0.50;;;13.60;99.90;;;;;;6186812;23;20023;-90
2024/03/01 12:25:37;;;;;;;0.93;0.50;;;13.70;99.90;;;;;;6186757;23;20023;-89
2024/03/01 12:28:20;;;;;;;0.40;0.30;;;14.10;99.90;;;;;;6186938;23;20019;-90
2024/03/01 12:30:54;;;;;;;0.60;0.40;;;14.20;99.90;;;;;;6210089;23;20004;-90
2024/03/01 12:33:42;;;;;;;0.30;0.30;;;14.10;99.90;;;;;;6210298;23;20085;-89
2024/03/01 12:36:19;;;;;;;0.20;0.20;;;14.10;99.90;;;;;;6237027;23;20162;-89
2024/03/01 12:39:02;;;;;;;1.75;0.43;;;14.10;99.90;;;;;;6207169;23;20037;-90
2024/03/01 12:41:31;;;;;;;0.43;0.25;;;14.40;99.90;;;;;;6186370;23;20016;-90
2024/03/01 12:44:14;;;;;;;1.05;0.63;;;14.40;99.90;;;;;;6236769;22;20529;-89
2024/03/01 12:47:15;;;;;;;1.85;0.50;;;14.30;99.90;;;;;;6235503;23;20075;-89
2024/03/01 12:49:58;;;;;;;1.85;0.70;;;14.50;99.70;;;;;;6166104;23;20001;-89
2024/03/01 12:52:48;;;;;;;1.63;0.90;;;14.60;99.90;;;;;;6215514;23;20028;-89
2024/03/01 12:55:54;;;;;;;4.53;0.90;;;14.50;99.90;;;;;;6241254;22;20490;-90
2024/03/01 12:58:44;;;;;;;1.30;1.02;;;14.70;99.00;;;;;;6215741;23;20546;-90
2024/03/01 13:04:41;;;;;;;1.27;0.80;;;14.80;99.90;;;;;;6210980;22;20020;-90
2024/03/01 13:07:12;;;;;;;1.75;1.10;;;14.60;99.90;;;;;;6181640;23;20040;-90
2024/03/01 13:09:48;;;;;;;1.25;1.20;;;14.60;99.90;;;;;;6194656;23;20012;-88
2024/03/01 13:12:17;;;;;;;1.60;1.50;;;14.60;99.90;;;;;;6181100;23;20008;-88
2024/03/01 13:15:04;;;;;;;1.33;1.23;;;14.80;99.90;;;;;;6162479;23;20574;-90
2024/03/01 13:17:55;;;;;;;1.80;1.30;;;14.70;99.90;;;;;;6215673;23;20063;-88
2024/03/01 13:20:27;;;;;;;1.63;1.30;;;14.80;99.90;;;;;;6202308;23;20012;-90
2024/03/01 13:23:28;;;;;;;1.50;1.35;;;14.80;99.90;;;;;;6230484;23;20012;-90
2024/03/01 13:26:05;;;;;;;1.13;1.00;;;15.10;99.90;;;;;;6185958;23;20023;-89
2024/03/01 13:28:31;;;;;;;0.88;0.88;;;15.10;99.90;;;;;;6221832;23;20016;-89
2024/03/01 13:31:09;;;;;;;1.23;0.68;;;15.30;99.10;;;;;;6198163;23;20012;-90
2024/03/01 13:33:46;;;;;;;0.50;0.50;;;15.20;98.70;;;;;;6207371;23;20012;-90
2024/03/01 13:36:13;;;;;;;0.80;0.43;;;15.10;98.30;;;;;;6195404;23;20035;-90
2024/03/01 13:39:10;;;;;;;1.23;0.52;;;15.10;97.50;;;;;;6196082;23;20008;-89
2024/03/01 13:41:55;;;;;;;2.10;0.57;;;15.30;96.80;;;;;;6163113;23;20089;-90
2024/03/01 13:44:35;;;;;;;0.52;0.45;;;15.20;97.50;;;;;;6186099;23;20015;-91
2024/03/01 13:47:15;;;;;;;0.95;0.40;;;15.00;97.60;;;;;;6191451;23;20103;-90
2024/03/01 13:49:49;;;;;;;1.20;0.50;;;15.20;96.20;;;;;;6191519;23;20008;-89
2024/03/01 13:52:15;;;;;;;0.40;0.40;;;15.20;95.80;;;;;;6166740;23;20735;-89
2024/03/01 13:54:42;;;;;;;1.67;0.70;;;15.20;95.20;;;;;;6190320;23;20012;-91
2024/03/01 13:57:10;;;;;;;4.00;0.43;;;15.30;95.00;;;;;;6177547;23;20031;-91
2024/03/01 13:59:36;;;;;;;1.05;0.40;;;15.30;94.30;;;;;;6192670;23;20012;-91
2024/03/01 14:02:05;;;;;;;1.52;0.52;;;15.40;94.90;;;;;;6189761;23;20004;-91
2024/03/01 14:04:32;;;;;;;1.40;0.43;;;15.40;94.90;;;;;;6176403;23;20012;-90
2024/03/01 14:06:57;;;;;;;0.60;0.40;;;15.40;94.50;;;;;;6186368;23;20011;-90
2024/03/01 14:09:25;;;;;;;1.95;0.50;;;15.20;93.60;;;;;;6188656;23;20012;-90
2024/03/01 14:11:51;;;;;;;0.93;0.40;;;15.20;95.50;;;;;;6164756;23;20008;-91
2024/03/01 14:14:17;;;;;;;2.28;0.40;;;15.30;95.10;;;;;;6161147;23;20375;-91
2024/03/01 14:16:45;;;;;;;2.05;0.70;;;15.20;94.50;;;;;;6190623;23;20039;-90
2024/03/01 14:19:11;;;;;;;0.80;0.40;;;15.40;94.30;;;;;;6188872;23;20027;-92
2024/03/01 14:21:37;;;;;;;2.33;0.68;;;15.20;93.80;;;;;;6190385;23;20000;-90
2024/03/01 14:24:03;;;;;;;2.15;0.73;;;15.20;93.80;;;;;;6187821;23;20008;-90
2024/03/01 14:26:30;;;;;;;2.70;0.60;;;15.10;93.50;;;;;;6190085;23;20012;-92
2024/03/01 14:28:56;;;;;;;1.38;0.50;;;15.00;92.30;;;;;;6191898;23;20012;-89
2024/03/01 14:31:21;;;;;;;0.55;0.40;;;14.80;93.00;;;;;;6192956;23;20158;-92
2024/03/01 14:34:00;;;;;;;1.02;0.55;;;14.80;94.40;;;;;;6193909;23;20031;-91
2024/03/01 14:36:30;;;;;;;0.50;0.40;;;14.70;93.40;;;;;;6177512;23;20103;-92
2024/03/01 14:38:56;;;;;;;2.28;0.50;;;14.70;94.20;;;;;;6175802;23;20365;-91
2024/03/01 14:41:35;;;;;;;0.55;0.40;;;14.50;92.90;;;;;;6190041;23;20035;-91
2024/03/01 14:44:01;;;;;;;1.48;0.82;;;14.50;93.40;;;;;;6190040;23;20405;-92
2024/03/01 14:46:39;;;;;;;1.08;0.60;;;14.50;92.70;;;;;;6189640;23;20012;-91
2024/03/01 14:49:15;;;;;;;0.50;0.50;;;14.30;93.80;;;;;;6188339;23;20008;-92
2024/03/01 14:51:50;;;;;;;1.52;0.60;;;14.20;94.50;;;;;;6189914;23;20646;-90
2024/03/01 14:54:29;;;;;;;0.40;0.40;;;14.30;95.80;;;;;;6186403;23;20022;-91
2024/03/01 14:56:56;;;;;;;1.73;0.50;;;14.20;94.90;;;;;;6187243;23;20004;-91
2024/03/01 14:59:22;;;;;;;1.23;0.47;;;14.20;94.50;;;;;;6188859;23;20012;-92
2024/03/01 15:01:51;;;;;;;1.77;0.65;;;14.10;94.60;;;;;;6188818;23;20088;-91
2024/03/01 15:04:18;;;;;;;0.57;0.50;;;14.00;94.50;;;;;;6186933;23;20435;-90
2024/03/01 15:06:53;;;;;;;1.67;0.60;;;13.90;94.20;;;;;;6188268;23;20008;-90
2024/03/01 15:09:22;;;;;;;0.47;0.40;;;13.60;92.40;;;;;;6185959;23;20014;-91
2024/03/01 15:11:47;;;;;;;0.95;0.50;;;13.70;93.10;;;;;;6174276;23;20011;-91
2024/03/01 15:14:13;;;;;;;0.70;0.50;;;13.80;94.10;;;;;;6173348;23;20004;-90
2024/03/01 15:16:39;;;;;;;1.35;0.50;;;13.80;93.30;;;;;;6186580;23;21972;-91
2024/03/01 15:19:11;;;;;;;2.70;0.47;;;13.70;93.80;;;;;;6186882;23;20574;-91
2024/03/01 15:21:38;;;;;;;0.98;0.65;;;13.70;93.40;;;;;;6171461;23;20012;-90
2024/03/01 15:24:04;;;;;;;0.95;0.70;;;13.80;93.60;;;;;;6186626;23;20012;-90
2024/03/01 15:26:30;;;;;;;1.50;0.70;;;13.70;93.90;;;;;;6186586;23;20008;-91
2024/03/01 15:28:55;;;;;;;0.73;0.60;;;13.60;95.00;;;;;;6185495;23;20056;-90
2024/03/01 15:31:22;;;;;;;3.45;0.63;;;13.70;94.70;;;;;;6186466;23;20039;-91
2024/03/01 15:33:48;;;;;;;2.03;0.63;;;13.70;95.30;;;;;;6188304;23;20073;-90
2024/03/01 15:36:14;;;;;;;1.45;0.60;;;13.80;94.40;;;;;;6212273;23;20732;-91
2024/03/01 15:38:40;;;;;;;1.77;0.43;;;13.60;94.20;;;;;;6185777;23;20450;-90
2024/03/01 15:41:05;;;;;;;1.77;0.60;;;13.60;94.70;;;;;;6185283;23;20046;-91
2024/03/01 15:43:35;;;;;;;3.28;0.40;;;13.60;94.60;;;;;;6170187;23;20020;-91